createdAt,value
2018-09-07T00:01:03.329Z,14.70
2018-09-07T00:03:32.029Z,14.97
2018-09-07T00:06:00.760Z,14.50
2018-09-07T00:08:29.584Z,15.47
2018-09-07T00:10:58.377Z,19.17
2018-09-07T00:13:27.647Z,15.20
2018-09-07T00:15:56.410Z,15.73
2018-09-07T00:18:25.150Z,15.83
2018-09-07T00:20:53.810Z,16.10
2018-09-07T00:23:22.207Z,15.60
2018-09-07T00:25:50.780Z,17.20
2018-09-07T00:28:19.590Z,15.60
2018-09-07T00:30:48.274Z,15.13
2018-09-07T00:33:17.439Z,16.50
2018-09-07T00:35:46.443Z,15.70
2018-09-07T00:38:15.189Z,17.77
2018-09-07T00:40:44.230Z,18.17
2018-09-07T00:43:13.444Z,17.17
2018-09-07T00:45:42.096Z,17.57
2018-09-07T00:48:10.745Z,20.30
2018-09-07T00:50:39.689Z,19.20
2018-09-07T00:53:08.991Z,16.87
2018-09-07T00:55:37.624Z,16.40
2018-09-07T00:58:06.940Z,15.83
2018-09-07T01:00:38.483Z,16.20
2018-09-07T01:03:07.481Z,15.30
2018-09-07T01:05:36.412Z,15.47
2018-09-07T01:08:05.693Z,16.10
2018-09-07T01:10:34.557Z,16.87
2018-09-07T01:13:04.191Z,16.83
2018-09-07T01:15:32.752Z,18.93
2018-09-07T01:18:01.381Z,20.10
2018-09-07T01:20:29.949Z,18.20
2018-09-07T01:22:58.771Z,17.13
2018-09-07T01:25:27.535Z,19.10
2018-09-07T01:27:56.464Z,17.83
2018-09-07T01:30:25.347Z,15.90
2018-09-07T01:32:57.701Z,17.27
2018-09-07T01:35:27.412Z,17.37
2018-09-07T01:38:01.576Z,17.93
2018-09-07T01:40:30.613Z,16.62
2018-09-07T01:42:59.355Z,17.90
2018-09-07T01:45:28.415Z,20.93
2018-09-07T01:47:57.597Z,16.10
2018-09-07T01:50:26.485Z,14.97
2018-09-07T01:52:55.549Z,15.60
2018-09-07T01:55:24.596Z,16.97
2018-09-07T01:57:53.668Z,16.50
2018-09-07T02:00:22.493Z,16.17
2018-09-07T02:02:56.626Z,17.03
2018-09-07T02:05:26.124Z,18.07
2018-09-07T02:07:58.293Z,15.90
2018-09-07T02:10:27.048Z,15.33
2018-09-07T02:12:55.514Z,20.30
2018-09-07T02:15:24.038Z,14.73
2018-09-07T02:17:52.727Z,17.53
2018-09-07T02:20:21.501Z,17.70
2018-09-07T02:22:50.673Z,17.40
2018-09-07T02:25:19.689Z,15.43
2018-09-07T02:27:48.799Z,18.00
2018-09-07T02:30:17.845Z,17.20
2018-09-07T02:32:46.438Z,18.00
2018-09-07T02:35:15.524Z,16.37
2018-09-07T02:37:44.509Z,17.03
2018-09-07T02:40:13.333Z,18.17
2018-09-07T02:42:42.183Z,15.57
2018-09-07T02:45:11.210Z,17.97
2018-09-07T02:47:40.734Z,15.87
2018-09-07T02:50:09.701Z,18.50
2018-09-07T02:52:38.629Z,16.73
2018-09-07T02:55:07.945Z,16.30
2018-09-07T02:57:37.111Z,17.67
2018-09-07T03:00:05.961Z,16.27
2018-09-07T03:02:34.762Z,16.40
2018-09-07T03:05:03.458Z,22.27
2018-09-07T03:07:32.190Z,15.77
2018-09-07T03:10:00.868Z,18.50
2018-09-07T03:12:29.513Z,14.57
2018-09-07T03:14:58.133Z,14.67
2018-09-07T03:17:27.179Z,14.90
2018-09-07T03:19:56.570Z,14.53
2018-09-07T03:22:25.358Z,18.67
2018-09-07T03:24:54.358Z,15.05
2018-09-07T03:27:23.279Z,13.60
2018-09-07T03:29:52.190Z,16.13
2018-09-07T03:32:21.398Z,15.90
2018-09-07T03:34:50.807Z,19.50
2018-09-07T03:37:20.053Z,19.70
2018-09-07T03:39:49.009Z,16.75
2018-09-07T03:42:18.157Z,15.50
2018-09-07T03:44:47.296Z,16.00
2018-09-07T03:47:16.100Z,18.40
2018-09-07T03:49:45.164Z,16.57
2018-09-07T03:52:14.248Z,15.07
2018-09-07T03:54:43.070Z,17.93
2018-09-07T03:57:12.003Z,16.73
2018-09-07T03:59:40.540Z,18.77
2018-09-07T04:02:09.282Z,18.50
2018-09-07T04:04:37.963Z,16.15
2018-09-07T04:07:06.647Z,18.87
2018-09-07T04:09:35.169Z,16.90
2018-09-07T04:12:04.926Z,17.37
2018-09-07T04:14:33.921Z,17.87
2018-09-07T04:17:02.942Z,16.67
2018-09-07T04:19:31.948Z,18.60
2018-09-07T04:22:01.291Z,16.97
2018-09-07T04:24:30.199Z,18.07
2018-09-07T04:26:59.507Z,18.37
2018-09-07T04:29:28.358Z,19.10
2018-09-07T04:31:57.021Z,17.83
2018-09-07T04:34:25.985Z,24.90
2018-09-07T04:36:55.123Z,20.40
2018-09-07T04:39:23.873Z,20.87
2018-09-07T04:41:52.871Z,19.87
2018-09-07T04:44:21.653Z,20.40
2018-09-07T04:46:50.750Z,19.27
2018-09-07T04:49:19.642Z,18.10
2018-09-07T04:51:48.306Z,17.90
2018-09-07T04:54:16.874Z,17.87
2018-09-07T04:56:45.504Z,17.30
2018-09-07T04:59:14.184Z,18.00
2018-09-07T05:01:43.289Z,16.90
2018-09-07T05:04:11.737Z,18.17
2018-09-07T05:06:40.645Z,18.90
2018-09-07T05:09:10.036Z,20.43
2018-09-07T05:11:39.066Z,19.33
2018-09-07T05:14:07.871Z,17.60
2018-09-07T05:16:36.547Z,19.87
2018-09-07T05:19:05.405Z,18.60
2018-09-07T05:21:38.579Z,22.30
2018-09-07T05:24:07.692Z,18.70
2018-09-07T05:26:36.396Z,22.90
2018-09-07T05:29:05.830Z,18.60
2018-09-07T05:31:34.473Z,20.20
2018-09-07T05:34:03.556Z,19.47
2018-09-07T05:36:32.960Z,18.40
2018-09-07T05:39:03.102Z,19.87
2018-09-07T05:41:33.363Z,19.33
2018-09-07T05:44:02.720Z,19.40
2018-09-07T05:46:31.823Z,19.50
2018-09-07T05:49:00.384Z,20.43
2018-09-07T05:51:29.456Z,21.90
2018-09-07T05:53:58.279Z,19.37
2018-09-07T05:56:26.871Z,24.70
2018-09-07T05:58:56.219Z,18.47
2018-09-07T06:01:24.821Z,20.37
2018-09-07T06:03:53.929Z,18.73
2018-09-07T06:06:23.346Z,23.65
2018-09-07T06:08:52.306Z,19.50
2018-09-07T06:11:21.240Z,17.43
2018-09-07T06:13:49.925Z,15.77
2018-09-07T06:16:18.617Z,14.50
2018-09-07T06:18:47.275Z,13.90
2018-09-07T06:21:15.982Z,16.37
2018-09-07T06:23:44.880Z,15.03
2018-09-07T06:26:13.662Z,14.70
2018-09-07T06:28:42.241Z,15.70
2018-09-07T06:31:21.276Z,14.50
2018-09-07T06:34:22.787Z,13.73
2018-09-07T06:36:54.037Z,17.50
2018-09-07T06:39:43.036Z,14.43
2018-09-07T06:42:11.527Z,17.70
2018-09-07T06:44:40.093Z,17.90
2018-09-07T06:47:09.108Z,15.50
2018-09-07T06:49:37.782Z,16.80
2018-09-07T06:52:06.531Z,16.17
2018-09-07T06:54:35.364Z,16.50
2018-09-07T06:57:04.049Z,16.90
2018-09-07T06:59:32.818Z,16.93
2018-09-07T07:02:01.425Z,17.90
2018-09-07T07:04:30.177Z,18.98
2018-09-07T07:06:59.091Z,19.00
2018-09-07T07:09:27.971Z,18.62
2018-09-07T07:11:56.571Z,18.17
2018-09-07T07:14:25.569Z,21.83
2018-09-07T07:16:54.256Z,21.90
2018-09-07T07:19:23.147Z,26.00
2018-09-07T07:21:52.005Z,25.30
2018-09-07T07:24:21.159Z,24.30
2018-09-07T07:26:50.330Z,26.00
2018-09-07T07:29:19.071Z,32.10
2018-09-07T07:31:48.456Z,28.83
2018-09-07T07:34:17.642Z,28.83
2018-09-07T07:36:47.828Z,36.03
2018-09-07T07:39:16.677Z,30.70
2018-09-07T07:41:45.633Z,35.63
2018-09-07T07:44:14.440Z,36.43
2018-09-07T07:46:43.328Z,37.50
2018-09-07T07:49:12.296Z,37.33
2018-09-07T07:51:41.096Z,38.63
2018-09-07T07:54:09.800Z,37.73
2018-09-07T07:56:38.464Z,39.03
2018-09-07T07:59:07.431Z,39.33
2018-09-07T08:01:36.498Z,37.10
2018-09-07T08:04:05.549Z,37.37
2018-09-07T08:06:34.629Z,37.10
2018-09-07T08:09:03.750Z,33.50
2018-09-07T08:11:33.015Z,38.47
2018-09-07T08:14:02.192Z,37.97
2018-09-07T08:16:31.124Z,39.47
2018-09-07T08:18:59.910Z,36.43
2018-09-07T08:21:30.720Z,36.97
2018-09-07T08:23:59.892Z,37.70
2018-09-07T08:26:29.015Z,38.20
2018-09-07T08:29:08.628Z,37.87
2018-09-07T08:31:39.760Z,34.30
2018-09-07T08:34:08.872Z,34.83
2018-09-07T08:36:41.314Z,37.40
2018-09-07T08:39:10.130Z,37.60
2018-09-07T08:41:38.881Z,35.53
2018-09-07T08:44:07.767Z,34.00
2018-09-07T08:46:36.772Z,35.47
2018-09-07T08:49:05.566Z,35.03
2018-09-07T08:51:34.259Z,32.77
2018-09-07T08:54:03.353Z,29.77
2018-09-07T08:56:33.391Z,30.43
2018-09-07T08:59:02.162Z,27.70
2018-09-07T09:01:30.821Z,32.90
2018-09-07T09:03:59.810Z,28.10
2018-09-07T09:06:28.755Z,30.87
2018-09-07T09:08:57.594Z,27.00
2018-09-07T09:11:27.354Z,29.30
2018-09-07T09:13:56.191Z,26.63
2018-09-07T09:16:25.080Z,30.70
2018-09-07T09:18:53.975Z,29.10
2018-09-07T09:21:22.852Z,33.70
2018-09-07T09:23:52.000Z,30.70
2018-09-07T09:26:20.707Z,32.43
2018-09-07T09:28:49.293Z,30.93
2018-09-07T09:31:18.028Z,29.93
2018-09-07T09:33:46.979Z,26.30
2018-09-07T09:36:15.518Z,32.30
2018-09-07T09:38:43.980Z,26.10
2018-09-07T09:41:12.773Z,27.10
2018-09-07T09:43:41.541Z,26.73
2018-09-07T09:46:10.578Z,25.90
2018-09-07T09:48:39.355Z,25.50
2018-09-07T09:51:08.310Z,22.00
2018-09-07T09:53:38.102Z,21.90
2018-09-07T09:56:06.759Z,22.40
2018-09-07T09:58:35.658Z,20.70
2018-09-07T10:01:09.684Z,21.90
2018-09-07T10:03:45.057Z,18.37
2018-09-07T10:06:13.958Z,19.93
2018-09-07T10:08:43.093Z,18.33
2018-09-07T10:11:11.932Z,18.23
2018-09-07T10:13:40.897Z,19.40
2018-09-07T10:16:09.945Z,19.90
2018-09-07T10:18:40.082Z,16.25
2018-09-07T10:21:09.188Z,15.70
2018-09-07T10:23:38.185Z,16.40
2018-09-07T10:26:07.389Z,14.07
2018-09-07T10:28:36.235Z,15.87
2018-09-07T10:31:05.649Z,19.83
2018-09-07T10:33:34.631Z,14.33
2018-09-07T10:36:03.626Z,14.70
2018-09-07T10:38:32.406Z,15.37
2018-09-07T10:41:05.233Z,15.32
2018-09-07T10:43:34.619Z,14.23
2018-09-07T10:46:04.798Z,13.13
2018-09-07T10:48:33.986Z,12.87
2018-09-07T10:51:02.733Z,14.20
2018-09-07T10:53:31.673Z,13.50
2018-09-07T10:56:00.586Z,13.30
2018-09-07T10:58:29.640Z,13.60
2018-09-07T11:00:58.609Z,13.93
2018-09-07T11:03:27.618Z,12.58
2018-09-07T11:05:56.475Z,12.30
2018-09-07T11:08:25.176Z,12.00
2018-09-07T11:10:53.888Z,12.60
2018-09-07T11:13:22.631Z,12.60
2018-09-07T11:15:51.418Z,12.13
2018-09-07T11:18:20.029Z,14.87
2018-09-07T11:20:48.857Z,11.57
2018-09-07T11:23:18.142Z,16.90
2018-09-07T11:25:47.265Z,17.02
2018-09-07T11:28:15.850Z,12.43
2018-09-07T11:30:44.538Z,12.80
2018-09-07T11:33:13.257Z,13.10
2018-09-07T11:35:42.064Z,12.17
2018-09-07T11:38:10.808Z,13.10
2018-09-07T11:40:39.958Z,13.13
2018-09-07T11:43:08.770Z,13.50
2018-09-07T11:45:39.735Z,12.53
2018-09-07T11:48:08.729Z,10.98
2018-09-07T11:50:37.509Z,11.60
2018-09-07T11:53:06.498Z,11.50
2018-09-07T11:55:35.177Z,11.60
2018-09-07T11:58:04.052Z,10.07
2018-09-07T12:00:32.860Z,11.40
2018-09-07T12:03:02.049Z,11.60
2018-09-07T12:05:31.015Z,11.17
2018-09-07T12:07:59.967Z,11.17
2018-09-07T12:10:28.883Z,11.10
2018-09-07T12:12:57.715Z,11.73
2018-09-07T12:15:26.535Z,13.17
2018-09-07T12:17:55.911Z,12.87
2018-09-07T12:20:25.168Z,11.20
2018-09-07T12:22:54.243Z,12.43
2018-09-07T12:25:23.422Z,12.93
2018-09-07T12:27:52.812Z,11.30
2018-09-07T12:30:22.156Z,11.40
2018-09-07T12:32:51.506Z,12.60
2018-09-07T12:35:23.496Z,13.50
2018-09-07T12:37:53.530Z,12.10
2018-09-07T12:40:22.178Z,14.00
2018-09-07T12:42:51.751Z,12.33
2018-09-07T12:45:21.032Z,12.80
2018-09-07T12:47:50.987Z,10.33
2018-09-07T12:50:19.919Z,10.93
2018-09-07T12:52:48.627Z,9.17
2018-09-07T12:55:18.043Z,10.87
2018-09-07T12:57:48.213Z,9.70
2018-09-07T13:00:19.070Z,12.83
2018-09-07T13:02:47.937Z,11.53
2018-09-07T13:05:17.293Z,12.00
2018-09-07T13:07:46.504Z,13.17
2018-09-07T13:10:15.586Z,11.60
2018-09-07T13:12:46.050Z,11.43
2018-09-07T13:15:15.469Z,15.03
2018-09-07T13:17:47.074Z,11.10
2018-09-07T13:20:16.227Z,11.90
2018-09-07T13:22:45.592Z,12.47
2018-09-07T13:25:15.266Z,12.87
2018-09-07T13:27:44.540Z,11.50
2018-09-07T13:30:18.343Z,12.40
2018-09-07T13:32:47.507Z,9.83
2018-09-07T13:35:16.626Z,12.23
2018-09-07T13:37:45.770Z,9.90
2018-09-07T13:40:14.758Z,10.70
2018-09-07T13:42:43.726Z,9.53
2018-09-07T13:45:12.312Z,9.97
2018-09-07T13:47:40.894Z,11.07
2018-09-07T13:50:10.277Z,9.80
2018-09-07T13:52:38.978Z,9.40
2018-09-07T13:55:07.758Z,9.90
2018-09-07T13:57:36.493Z,10.47
2018-09-07T14:00:05.641Z,10.85
2018-09-07T14:02:34.238Z,9.27
2018-09-07T14:05:02.841Z,9.47
2018-09-07T14:07:31.832Z,10.23
2018-09-07T14:10:00.935Z,9.47
2018-09-07T14:12:29.960Z,10.23
2018-09-07T14:14:58.768Z,10.07
2018-09-07T14:17:28.847Z,8.83
2018-09-07T14:19:57.692Z,9.20
2018-09-07T14:22:27.101Z,12.68
2018-09-07T14:24:56.743Z,9.27
2018-09-07T14:27:26.476Z,11.77
2018-09-07T14:29:55.673Z,10.90
2018-09-07T14:32:24.406Z,10.03
2018-09-07T14:34:53.343Z,11.60
2018-09-07T14:37:22.201Z,8.30
2018-09-07T14:39:50.997Z,8.70
2018-09-07T14:42:19.759Z,9.00
2018-09-07T14:44:48.727Z,10.23
2018-09-07T14:47:17.685Z,9.90
2018-09-07T14:49:46.525Z,8.67
2018-09-07T14:52:15.480Z,9.40
2018-09-07T14:54:44.791Z,9.00
2018-09-07T14:57:13.433Z,9.10
2018-09-07T14:59:42.785Z,8.70
2018-09-07T15:02:11.531Z,11.20
2018-09-07T15:04:41.418Z,8.90
2018-09-07T15:07:10.126Z,9.50
2018-09-07T15:09:38.786Z,8.50
2018-09-07T15:12:07.716Z,9.17
2018-09-07T15:14:36.565Z,8.70
2018-09-07T15:17:05.642Z,10.40
2018-09-07T15:19:34.298Z,9.20
2018-09-07T15:22:03.057Z,8.73
2018-09-07T15:24:31.633Z,9.03
2018-09-07T15:27:00.346Z,9.90
2018-09-07T15:29:28.932Z,9.28
2018-09-07T15:31:57.789Z,9.47
2018-09-07T15:34:26.506Z,9.07
2018-09-07T15:36:55.267Z,11.10
2018-09-07T15:39:23.837Z,9.70
2018-09-07T15:41:52.309Z,10.30
2018-09-07T15:44:20.807Z,8.57
2018-09-07T15:46:49.471Z,8.90
2018-09-07T15:49:18.840Z,8.10
2018-09-07T15:51:47.690Z,7.75
2018-09-07T15:54:16.483Z,9.17
2018-09-07T15:56:45.280Z,9.77
2018-09-07T15:59:14.192Z,10.63
2018-09-07T16:01:42.958Z,10.63
2018-09-07T16:04:12.173Z,8.80
2018-09-07T16:06:41.461Z,8.70
2018-09-07T16:09:10.290Z,9.40
2018-09-07T16:11:39.291Z,8.77
2018-09-07T16:14:08.705Z,9.20
2018-09-07T16:16:37.428Z,8.70
2018-09-07T16:19:06.386Z,9.00
2018-09-07T16:21:35.208Z,8.30
2018-09-07T16:24:03.987Z,8.30
2018-09-07T16:26:32.782Z,11.00
2018-09-07T16:29:01.757Z,8.47
2018-09-07T16:31:30.824Z,9.43
2018-09-07T16:33:59.881Z,10.30
2018-09-07T16:36:28.806Z,8.70
2018-09-07T16:38:57.958Z,8.30
2018-09-07T16:41:26.849Z,10.17
2018-09-07T16:43:55.847Z,8.63
2018-09-07T16:46:26.315Z,8.37
2018-09-07T16:48:58.857Z,8.73
2018-09-07T16:51:28.259Z,9.07
2018-09-07T16:53:57.595Z,10.20
2018-09-07T16:56:26.638Z,8.77
2018-09-07T16:58:55.531Z,8.10
2018-09-07T17:01:24.971Z,10.60
2018-09-07T17:03:54.134Z,12.13
2018-09-07T17:06:23.321Z,9.93
2018-09-07T17:08:53.734Z,8.27
2018-09-07T17:11:22.924Z,8.20
2018-09-07T17:13:51.770Z,9.90
2018-09-07T17:16:20.440Z,8.53
2018-09-07T17:18:49.319Z,10.77
2018-09-07T17:21:18.297Z,8.80
2018-09-07T17:23:46.891Z,9.63
2018-09-07T17:26:15.859Z,8.60
2018-09-07T17:28:44.502Z,8.38
2018-09-07T17:31:13.820Z,10.37
2018-09-07T17:33:43.034Z,8.73
2018-09-07T17:36:12.285Z,8.83
2018-09-07T17:38:41.258Z,8.73
2018-09-07T17:41:10.527Z,9.87
2018-09-07T17:43:39.403Z,9.10
2018-09-07T17:46:08.560Z,10.07
2018-09-07T17:48:37.546Z,8.57
2018-09-07T17:51:06.459Z,8.50
2018-09-07T17:53:36.368Z,8.37
2018-09-07T17:56:05.649Z,8.93
2018-09-07T17:58:34.886Z,9.47
2018-09-07T18:01:04.492Z,8.90
2018-09-07T18:03:33.738Z,9.10
2018-09-07T18:06:03.993Z,9.20
2018-09-07T18:08:33.480Z,10.30
2018-09-07T18:11:03.049Z,8.90
2018-09-07T18:13:32.186Z,8.47
2018-09-07T18:16:01.158Z,11.67
2018-09-07T18:18:30.082Z,9.00
2018-09-07T18:20:58.778Z,9.13
2018-09-07T18:23:27.620Z,8.90
2018-09-07T18:25:56.663Z,9.20
2018-09-07T18:28:27.393Z,12.70
2018-09-07T18:30:57.265Z,8.77
2018-09-07T18:33:32.148Z,9.90
2018-09-07T18:36:01.604Z,8.73
2018-09-07T18:38:30.322Z,9.13
2018-09-07T18:40:59.551Z,11.70
2018-09-07T18:43:29.329Z,8.90
2018-09-07T18:45:58.785Z,8.93
2018-09-07T18:48:28.153Z,8.97
2018-09-07T18:50:59.227Z,9.50
2018-09-07T18:53:28.833Z,9.50
2018-09-07T18:55:58.290Z,10.13
2018-09-07T18:58:26.865Z,9.10
2018-09-07T19:00:55.593Z,9.50
2018-09-07T19:03:24.550Z,10.60
2018-09-07T19:05:53.750Z,8.90
2018-09-07T19:08:23.236Z,11.30
2018-09-07T19:10:52.276Z,9.20
2018-09-07T19:13:21.328Z,9.40
2018-09-07T19:15:50.665Z,9.17
2018-09-07T19:18:19.538Z,9.00
2018-09-07T19:20:48.278Z,7.80
2018-09-07T19:23:17.751Z,9.60
2018-09-07T19:25:46.746Z,9.23
2018-09-07T19:28:15.953Z,10.90
2018-09-07T19:30:45.512Z,9.53
2018-09-07T19:33:15.091Z,8.53
2018-09-07T19:35:44.061Z,9.90
2018-09-07T19:38:12.913Z,9.17
2018-09-07T19:40:42.272Z,8.13
2018-09-07T19:43:12.961Z,8.20
2018-09-07T19:45:42.229Z,8.43
2018-09-07T19:48:11.852Z,9.43
2018-09-07T19:50:50.578Z,8.87
2018-09-07T19:53:30.190Z,9.13
2018-09-07T19:56:24.511Z,9.08
2018-09-07T19:59:01.046Z,8.55
2018-09-07T20:01:32.875Z,8.93
2018-09-07T20:04:10.678Z,9.70
2018-09-07T20:06:41.127Z,9.10
2018-09-07T20:09:10.734Z,9.10
2018-09-07T20:11:40.316Z,8.60
2018-09-07T20:14:09.620Z,9.70
2018-09-07T20:16:39.057Z,8.57
2018-09-07T20:19:08.038Z,10.03
2018-09-07T20:21:37.078Z,13.53
2018-09-07T20:24:06.316Z,10.60
2018-09-07T20:26:35.346Z,9.25
2018-09-07T20:29:06.180Z,10.25
2018-09-07T20:31:35.032Z,8.87
2018-09-07T20:34:04.645Z,8.20
2018-09-07T20:36:33.626Z,8.97
2018-09-07T20:39:03.051Z,8.25
2018-09-07T20:41:32.409Z,9.60
2018-09-07T20:44:02.027Z,8.93
2018-09-07T20:46:31.721Z,10.00
2018-09-07T20:49:03.303Z,8.73
2018-09-07T20:51:42.325Z,10.32
2018-09-07T20:54:15.761Z,10.60
2018-09-07T20:56:45.951Z,9.15
2018-09-07T20:59:20.372Z,9.75
2018-09-07T21:01:49.737Z,10.80
2018-09-07T21:04:18.864Z,9.20
2018-09-07T21:06:47.844Z,9.10
2018-09-07T21:09:16.625Z,9.10
2018-09-07T21:11:45.409Z,9.23
2018-09-07T21:14:14.509Z,9.57
2018-09-07T21:16:43.424Z,8.67
2018-09-07T21:19:13.518Z,9.50
2018-09-07T21:21:42.443Z,8.50
2018-09-07T21:24:11.737Z,9.20
2018-09-07T21:26:40.745Z,9.07
2018-09-07T21:29:10.241Z,10.53
2018-09-07T21:31:39.490Z,9.40
2018-09-07T21:34:09.145Z,9.37
2018-09-07T21:36:38.383Z,9.13
2018-09-07T21:39:12.344Z,9.30
2018-09-07T21:41:42.264Z,9.70
2018-09-07T21:44:11.950Z,11.63
2018-09-07T21:46:47.069Z,12.23
2018-09-07T21:49:16.351Z,9.27
2018-09-07T21:51:50.903Z,9.40
2018-09-07T21:54:23.674Z,9.73
2018-09-07T21:56:59.607Z,9.97
2018-09-07T21:59:28.366Z,9.97
2018-09-07T22:01:57.500Z,11.83
2018-09-07T22:04:26.604Z,9.30
2018-09-07T22:07:00.698Z,12.20
2018-09-07T22:09:29.440Z,9.83
2018-09-07T22:11:58.336Z,9.17
2018-09-07T22:14:29.383Z,9.33
2018-09-07T22:16:58.552Z,9.30
2018-09-07T22:19:27.626Z,8.77
2018-09-07T22:21:57.101Z,9.67
2018-09-07T22:24:26.061Z,8.90
2018-09-07T22:26:55.250Z,9.17
2018-09-07T22:29:24.650Z,11.00
2018-09-07T22:31:53.645Z,9.90
2018-09-07T22:34:22.439Z,9.43
2018-09-07T22:36:51.739Z,10.07
2018-09-07T22:39:21.794Z,9.50
2018-09-07T22:41:50.778Z,10.27
2018-09-07T22:44:19.847Z,9.50
2018-09-07T22:46:49.289Z,10.73
2018-09-07T22:49:19.029Z,12.75
2018-09-07T22:51:48.059Z,9.80
2018-09-07T22:54:16.993Z,13.73
2018-09-07T22:56:45.958Z,9.00
2018-09-07T22:59:14.701Z,12.20
2018-09-07T23:01:43.225Z,8.75
2018-09-07T23:04:11.709Z,9.23
2018-09-07T23:06:45.604Z,9.47
2018-09-07T23:09:14.712Z,10.40
2018-09-07T23:11:44.022Z,10.53
2018-09-07T23:14:13.149Z,9.27
2018-09-07T23:16:43.279Z,9.93
2018-09-07T23:19:12.488Z,13.90
2018-09-07T23:21:41.503Z,10.20
2018-09-07T23:24:10.005Z,10.00
2018-09-07T23:26:39.385Z,9.20
2018-09-07T23:29:12.578Z,9.20
2018-09-07T23:31:41.735Z,9.40
2018-09-07T23:34:11.155Z,8.97
2018-09-07T23:36:40.487Z,9.30
2018-09-07T23:39:12.529Z,10.10
2018-09-07T23:41:41.801Z,11.30
2018-09-07T23:44:10.826Z,8.28
2018-09-07T23:46:39.775Z,9.30
2018-09-07T23:49:09.922Z,11.50
2018-09-07T23:51:38.752Z,9.10
2018-09-07T23:54:07.292Z,11.70
2018-09-07T23:56:35.813Z,9.23
2018-09-07T23:59:04.534Z,9.93
